Time;durP1;ratioP1;P1;durP2;ratioP2;P2;SDS_P1;SDS_P2;PMS_P1;PMS_P2;Temp;Humidity;BMP_temperature;BMP_pressure;BME280_temperature;BME280_humidity;BME280_pressure;Samples;Min_cycle;Max_cycle;Signal;HPM_P1;HPM_P2
2022/10/15 00:00:07;;;;;;;26.83;19.00;;;;;;;10.67;100.00;100824.53;6193747;23;20104;-76
2022/10/15 00:02:33;;;;;;;23.20;17.52;;;;;;;10.71;100.00;100816.41;6220775;23;20521;-76
2022/10/15 00:05:00;;;;;;;28.63;20.08;;;;;;;10.73;100.00;100822.03;6220685;23;20088;-76
2022/10/15 00:07:27;;;;;;;26.23;18.92;;;;;;;10.73;100.00;100817.44;6221181;23;20017;-75
2022/10/15 00:09:54;;;;;;;31.15;20.48;;;;;;;10.76;100.00;100818.50;6220540;23;20025;-76
2022/10/15 00:12:20;;;;;;;31.35;21.02;;;;;;;10.76;100.00;100815.84;6220971;23;20092;-76
2022/10/15 00:14:47;;;;;;;29.35;20.00;;;;;;;10.75;100.00;100812.44;6220357;23;20040;-76
2022/10/15 00:17:13;;;;;;;28.83;20.38;;;;;;;10.74;100.00;100812.88;6221254;23;20017;-75
2022/10/15 00:19:40;;;;;;;30.92;21.40;;;;;;;10.75;100.00;100811.69;6221029;23;20041;-76
2022/10/15 00:22:06;;;;;;;27.05;20.75;;;;;;;10.75;100.00;100806.38;6220725;23;20075;-76
2022/10/15 00:24:32;;;;;;;29.13;20.63;;;;;;;10.76;100.00;100807.84;6221146;23;20047;-76
2022/10/15 00:26:59;;;;;;;27.45;21.48;;;;;;;10.77;100.00;100810.06;6220681;23;20020;-76
2022/10/15 00:29:25;;;;;;;28.83;22.60;;;;;;;10.78;100.00;100811.56;6193809;23;20424;-76
2022/10/15 00:31:53;;;;;;;30.75;21.38;;;;;;;10.80;100.00;100813.75;6193693;23;20017;-76
2022/10/15 00:34:20;;;;;;;32.55;21.85;;;;;;;10.80;100.00;100811.84;6221203;23;20086;-76
2022/10/15 00:36:48;;;;;;;30.67;20.95;;;;;;;10.81;100.00;100813.31;6220686;23;20013;-76
2022/10/15 00:39:15;;;;;;;31.67;20.98;;;;;;;10.83;100.00;100812.88;6221012;23;20477;-76
2022/10/15 00:41:43;;;;;;;33.85;21.73;;;;;;;10.85;100.00;100803.28;6188848;23;20077;-76
2022/10/15 00:44:21;;;;;;;34.80;21.42;;;;;;;10.86;100.00;100804.75;6189978;23;20044;-76
2022/10/15 00:46:51;;;;;;;31.70;22.02;;;;;;;10.86;100.00;100804.75;6189054;23;20068;-75
2022/10/15 00:49:20;;;;;;;32.00;21.80;;;;;;;10.87;100.00;100810.81;6190757;23;20470;-76
2022/10/15 00:51:53;;;;;;;35.25;21.10;;;;;;;10.87;100.00;100806.25;6190568;23;20018;-76
2022/10/15 00:54:20;;;;;;;32.40;23.05;;;;;;;10.86;100.00;100799.44;6191158;23;20085;-76
2022/10/15 00:56:48;;;;;;;33.90;22.83;;;;;;;10.87;100.00;100797.50;6190333;23;20013;-76
2022/10/15 00:59:17;;;;;;;30.83;21.90;;;;;;;10.87;100.00;100797.50;6190511;23;20021;-76
2022/10/15 01:01:44;;;;;;;31.67;22.08;;;;;;;10.88;100.00;100796.31;6190214;23;20045;-76
2022/10/15 01:04:13;;;;;;;34.13;22.25;;;;;;;10.90;100.00;100797.38;6190880;23;20042;-76
2022/10/15 01:06:40;;;;;;;39.05;23.75;;;;;;;10.91;100.00;100806.09;6189073;23;20053;-76
2022/10/15 01:09:07;;;;;;;33.08;22.95;;;;;;;10.93;100.00;100798.41;6188708;23;20025;-75
2022/10/15 01:11:43;;;;;;;34.65;23.27;;;;;;;10.92;100.00;100803.00;6188638;23;20014;-76
2022/10/15 01:14:36;;;;;;;36.90;22.88;;;;;;;10.93;100.00;100793.81;6191032;23;20014;-76
2022/10/15 01:17:25;;;;;;;37.45;22.83;;;;;;;10.94;100.00;100792.66;6190605;23;20500;-76
2022/10/15 01:20:23;;;;;;;34.58;23.92;;;;;;;10.96;100.00;100789.53;6189034;23;20027;-76
2022/10/15 01:23:19;;;;;;;38.45;24.42;;;;;;;10.96;100.00;100784.97;6190306;23;20024;-76
2022/10/15 01:26:29;;;;;;;40.35;24.95;;;;;;;10.96;100.00;100786.88;6189742;23;20014;-76
2022/10/15 01:29:27;;;;;;;36.72;24.20;;;;;;;10.96;100.00;100779.63;6184924;23;20595;-76
2022/10/15 01:32:22;;;;;;;38.83;24.40;;;;;;;10.96;100.00;100770.91;6069023;23;20034;-75
2022/10/15 01:34:58;;;;;;;37.65;24.58;;;;;;;10.94;100.00;100779.34;6069469;23;20079;-76
2022/10/15 01:37:43;;;;;;;38.50;24.92;;;;;;;10.95;100.00;100774.75;6045830;23;20444;-76
2022/10/15 01:40:16;;;;;;;40.58;26.02;;;;;;;10.94;100.00;100779.34;6069285;23;20422;-76
2022/10/15 01:42:53;;;;;;;41.28;26.42;;;;;;;10.94;100.00;100779.34;6045591;23;20067;-76
2022/10/15 01:45:28;;;;;;;46.67;25.73;;;;;;;10.93;100.00;100780.50;6046242;23;20026;-76
2022/10/15 01:48:11;;;;;;;38.90;25.30;;;;;;;10.90;100.00;100775.31;6069543;23;20058;-76
2022/10/15 01:50:43;;;;;;;43.33;25.70;;;;;;;10.88;100.00;100775.75;6045608;23;20023;-76
2022/10/15 01:53:11;;;;;;;;;;;;;;;10.86;100.00;100774.72;6070190;23;20023;-76
2022/10/15 01:55:42;;;;;;;43.95;24.75;;;;;;;10.84;100.00;100767.16;6069574;23;19921;-76
2022/10/15 01:58:11;;;;;;;44.10;27.40;;;;;;;10.82;100.00;100758.13;6045435;23;20047;-76
2022/10/15 02:00:40;;;;;;;39.25;25.15;;;;;;;10.81;100.00;100762.72;6045884;23;20095;-76
2022/10/15 02:03:08;;;;;;;42.58;26.40;;;;;;;10.78;100.00;100755.63;6045087;23;20466;-76
2022/10/15 02:05:43;;;;;;;42.42;27.05;;;;;;;10.76;100.00;100754.59;6045520;23;20054;-76
2022/10/15 02:08:18;;;;;;;42.33;26.52;;;;;;;10.74;100.00;100746.31;6122781;23;20028;-76
2022/10/15 02:10:54;;;;;;;44.90;25.98;;;;;;;10.71;100.00;100753.25;6187961;23;20395;-75
2022/10/15 02:13:24;;;;;;;43.15;26.58;;;;;;;10.71;100.00;100757.81;6190562;23;20118;-76
2022/10/15 02:16:08;;;;;;;40.83;27.23;;;;;;;10.67;100.00;100747.31;6190245;23;20044;-75
2022/10/15 02:18:50;;;;;;;43.17;25.83;;;;;;;10.65;100.00;100742.44;6189065;23;20367;-75
2022/10/15 02:21:22;;;;;;;44.95;26.20;;;;;;;10.63;100.00;100733.41;6190313;23;20013;-75
2022/10/15 02:24:00;;;;;;;49.03;26.30;;;;;;;10.62;100.00;100734.56;6187871;23;20789;-76
2022/10/15 02:26:29;;;;;;;42.65;26.35;;;;;;;10.61;100.00;100735.75;6188914;23;20022;-76
2022/10/15 02:28:59;;;;;;;41.17;25.77;;;;;;;10.60;100.00;100728.94;6188261;23;20024;-75
2022/10/15 02:31:30;;;;;;;51.35;27.00;;;;;;;10.61;100.00;100727.78;6188882;23;20018;-75
2022/10/15 02:33:59;;;;;;;;;;;;;;;10.61;100.00;100725.09;6190541;23;20022;-75
2022/10/15 02:36:28;;;;;;;41.28;25.33;;;;;;;10.60;100.00;100729.69;6188674;23;19920;-75
2022/10/15 02:38:58;;;;;;;44.65;26.95;;;;;;;10.61;100.00;100722.44;6189494;23;20033;-76
2022/10/15 02:41:28;;;;;;;47.15;26.90;;;;;;;10.59;100.00;100709.56;6192368;23;20110;-75
2022/10/15 02:43:55;;;;;;;48.22;27.83;;;;;;;10.61;100.00;100709.88;6193405;23;20025;-76
2022/10/15 02:46:21;;;;;;;49.55;27.77;;;;;;;10.63;100.00;100720.09;6193509;23;20028;-75
2022/10/15 02:48:48;;;;;;;45.55;27.50;;;;;;;10.62;100.00;100714.03;6193343;23;20013;-76
2022/10/15 02:51:16;;;;;;;40.38;27.83;;;;;;;10.63;100.00;100712.09;6193574;23;20017;-76
2022/10/15 02:53:43;;;;;;;52.83;27.50;;;;;;;10.63;100.00;100712.09;6193569;23;20021;-75
2022/10/15 02:56:09;;;;;;;45.97;27.02;;;;;;;10.62;100.00;100710.63;6193290;23;20327;-75
2022/10/15 02:58:36;;;;;;;48.20;27.20;;;;;;;10.63;100.00;100707.50;6168820;23;20044;-76
2022/10/15 03:01:03;;;;;;;47.35;28.33;;;;;;;10.62;100.00;100702.63;6193099;23;20480;-76
2022/10/15 03:03:30;;;;;;;43.53;28.05;;;;;;;10.58;100.00;100692.13;6220330;23;20025;-76
2022/10/15 03:05:57;;;;;;;44.13;27.88;;;;;;;10.57;100.00;100682.66;6193145;23;20017;-76
2022/10/15 03:08:24;;;;;;;44.92;26.67;;;;;;;10.55;100.00;100685.00;6193015;23;20032;-76
2022/10/15 03:10:51;;;;;;;42.95;26.92;;;;;;;10.53;100.00;100683.97;6193007;23;20021;-76
2022/10/15 03:13:17;;;;;;;46.67;27.55;;;;;;;10.52;100.00;100685.88;6220381;23;20526;-76
2022/10/15 03:15:49;;;;;;;46.22;27.10;;;;;;;10.49;100.00;100681.44;6193330;23;20013;-75
2022/10/15 03:18:16;;;;;;;41.90;27.10;;;;;;;10.45;100.00;100682.75;6220441;23;20021;-75
2022/10/15 03:20:42;;;;;;;44.08;27.27;;;;;;;10.40;100.00;100680.69;6193501;23;20083;-76
2022/10/15 03:23:09;;;;;;;48.88;27.42;;;;;;;10.38;100.00;100675.06;6218447;23;20021;-76
2022/10/15 03:25:35;;;;;;;45.05;26.85;;;;;;;10.34;100.00;100675.22;6193357;23;20446;-76
2022/10/15 03:28:03;;;;;;;38.45;25.88;;;;;;;10.35;100.00;100679.34;6192951;23;20029;-75
2022/10/15 03:30:35;;;;;;;45.58;25.83;;;;;;;10.33;100.00;100674.47;6193649;23;20020;-76
2022/10/15 03:33:02;;;;;;;38.33;25.40;;;;;;;10.31;100.00;100681.41;6192752;23;20478;-75
2022/10/15 03:35:29;;;;;;;44.17;26.20;;;;;;;10.29;100.00;100676.50;6220130;23;20451;-76
2022/10/15 03:37:56;;;;;;;47.63;26.98;;;;;;;10.28;100.00;100684.94;6192513;23;20028;-76
2022/10/15 03:40:22;;;;;;;43.38;25.60;;;;;;;10.22;100.00;100679.44;6193186;23;20506;-76
2022/10/15 03:42:55;;;;;;;40.95;25.45;;;;;;;10.20;100.00;100681.78;6187211;23;20064;-76
2022/10/15 03:45:23;;;;;;;38.35;24.92;;;;;;;10.15;100.00;100679.69;6188546;23;20096;-76
2022/10/15 03:48:03;;;;;;;45.20;24.23;;;;;;;10.11;100.00;100678.31;6187729;23;20477;-76
2022/10/15 03:50:33;;;;;;;41.00;24.27;;;;;;;10.08;100.00;100676.53;6188666;23;20435;-76
2022/10/15 03:53:03;;;;;;;42.03;25.10;;;;;;;10.03;100.00;100672.53;6188973;23;20424;-75
2022/10/15 03:55:31;;;;;;;34.65;22.77;;;;;;;9.98;100.00;100675.78;6186732;23;20014;-75
2022/10/15 03:57:58;;;;;;;40.88;24.75;;;;;;;9.98;100.00;100670.47;6187979;23;20017;-75
2022/10/15 04:00:25;;;;;;;39.08;24.83;;;;;;;9.96;100.00;100670.88;6186526;23;20460;-75
2022/10/15 04:02:56;;;;;;;41.72;23.60;;;;;;;9.92;100.00;100672.19;6187420;23;20873;-75
2022/10/15 04:05:25;;;;;;;34.33;23.05;;;;;;;9.90;100.00;100677.22;6187312;23;20097;-75
2022/10/15 04:07:57;;;;;;;37.88;24.02;;;;;;;9.89;100.00;100678.38;6187428;23;20021;-75
2022/10/15 04:10:25;;;;;;;33.38;22.98;;;;;;;9.88;100.00;100674.25;6187686;23;20022;-75
2022/10/15 04:12:52;;;;;;;41.00;24.65;;;;;;;9.89;100.00;100676.47;6187584;23;20017;-75
2022/10/15 04:15:18;;;;;;;42.60;23.77;;;;;;;9.90;100.00;100682.53;6188143;23;20021;-75
2022/10/15 04:17:54;;;;;;;37.65;23.83;;;;;;;9.89;100.00;100678.38;6187452;23;20464;-75
2022/10/15 04:20:22;;;;;;;41.33;25.27;;;;;;;9.90;100.00;100679.88;6187115;23;20084;-75
2022/10/15 04:22:49;;;;;;;41.20;24.35;;;;;;;9.88;100.00;100690.94;6187420;23;20022;-75
2022/10/15 04:25:16;;;;;;;37.58;23.50;;;;;;;9.86;100.00;100690.63;6187585;23;20021;-75
2022/10/15 04:27:43;;;;;;;35.03;23.83;;;;;;;9.85;100.00;100691.81;6187803;23;20027;-75
2022/10/15 04:30:14;;;;;;;38.75;24.10;;;;;;;9.85;100.00;100691.06;6189729;23;20069;-75
2022/10/15 04:32:45;;;;;;;32.92;23.70;;;;;;;9.83;100.00;100690.75;6187833;23;20022;-75
2022/10/15 04:35:12;;;;;;;35.30;23.70;;;;;;;9.82;100.00;100689.28;6189796;23;20069;-75
2022/10/15 04:37:51;;;;;;;33.97;22.60;;;;;;;9.80;100.00;100691.63;6189076;23;20021;-75
2022/10/15 04:40:17;;;;;;;35.90;21.40;;;;;;;9.78;100.00;100688.66;6191002;23;20049;-75
2022/10/15 04:42:45;;;;;;;35.20;22.00;;;;;;;9.77;100.00;100692.50;6188826;23;20100;-75
2022/10/15 04:45:11;;;;;;;38.10;23.60;;;;;;;9.78;100.00;100701.94;6189481;23;20396;-75
2022/10/15 04:47:38;;;;;;;30.55;21.55;;;;;;;9.78;100.00;100699.28;6189587;23;20024;-75
2022/10/15 04:50:07;;;;;;;35.83;22.27;;;;;;;9.80;100.00;100699.59;6188033;23;20088;-75
2022/10/15 04:52:52;;;;;;;34.80;23.52;;;;;;;9.81;100.00;100687.78;6190609;23;20026;-75
2022/10/15 04:55:20;;;;;;;40.05;24.30;;;;;;;9.86;100.00;100690.63;6189139;23;20021;-75
2022/10/15 04:57:48;;;;;;;35.72;22.63;;;;;;;9.92;100.00;100690.81;6188602;23;20017;-75
2022/10/15 05:00:20;;;;;;;41.55;25.05;;;;;;;9.96;100.00;100691.44;6189288;23;20017;-75
2022/10/15 05:03:10;;;;;;;40.67;23.98;;;;;;;9.99;100.00;100695.88;6177322;23;20453;-75
2022/10/15 05:05:44;;;;;;;34.95;24.67;;;;;;;10.01;100.00;100686.25;6189011;23;20108;-75
2022/10/15 05:08:10;;;;;;;38.75;25.50;;;;;;;10.05;100.00;100694.09;6188969;23;20036;-75
2022/10/15 05:11:05;;;;;;;37.60;25.30;;;;;;;10.13;100.00;100689.28;6188785;23;20013;-75
2022/10/15 05:13:32;;;;;;;37.03;25.55;;;;;;;10.16;100.00;100699.78;6189169;23;20463;-75
2022/10/15 05:16:16;;;;;;;44.17;25.10;;;;;;;10.23;100.00;100701.47;6188470;23;20522;-75
2022/10/15 05:18:44;;;;;;;41.30;26.77;;;;;;;10.27;100.00;100694.84;6188665;23;20021;-75
2022/10/15 05:21:11;;;;;;;45.58;26.45;;;;;;;10.28;100.00;100687.59;6188823;23;20703;-75
2022/10/15 05:23:39;;;;;;;42.75;26.80;;;;;;;10.32;100.00;100685.53;6188663;23;20025;-75
2022/10/15 05:26:22;;;;;;;36.10;25.48;;;;;;;10.32;100.00;100691.59;6189190;23;20497;-75
2022/10/15 05:28:49;;;;;;;;;;;;;;;10.34;100.00;100691.16;6189199;23;20018;-75
2022/10/15 05:31:28;;;;;;;44.08;25.67;;;;;;;10.41;100.00;100690.88;6189358;23;19921;-75
2022/10/15 05:34:07;;;;;;;46.38;27.92;;;;;;;10.46;100.00;100689.56;6188136;23;20025;-75
2022/10/15 05:36:44;;;;;;;61.28;31.40;;;;;;;10.54;100.00;100688.09;6189146;23;20017;-75
2022/10/15 05:39:11;;;;;;;62.20;33.13;;;;;;;10.64;100.00;100694.94;6190364;23;20017;-75
2022/10/15 05:41:41;;;;;;;69.45;33.28;;;;;;;10.69;100.00;100683.72;6190488;23;20101;-75
2022/10/15 05:44:08;;;;;;;78.68;35.20;;;;;;;10.75;100.00;100684.63;6188335;23;20036;-75
2022/10/15 05:46:34;;;;;;;68.50;33.38;;;;;;;10.79;100.00;100684.47;6188679;23;20044;-75
2022/10/15 05:49:01;;;;;;;71.85;35.15;;;;;;;10.81;100.00;100684.75;6187845;23;20100;-75
2022/10/15 05:51:29;;;;;;;80.57;35.33;;;;;;;10.83;100.00;100685.78;6188546;23;20411;-75
2022/10/15 05:54:03;;;;;;;76.50;35.35;;;;;;;10.87;100.00;100686.41;6188287;23;20479;-75
2022/10/15 05:56:29;;;;;;;82.00;35.70;;;;;;;10.89;100.00;100680.63;6189079;23;20093;-75
2022/10/15 05:58:56;;;;;;;75.45;33.92;;;;;;;10.92;100.00;100682.41;6188656;23;20092;-75
2022/10/15 06:01:23;;;;;;;68.75;34.97;;;;;;;10.94;100.00;100686.13;6190059;23;20089;-75
2022/10/15 06:03:52;;;;;;;78.72;35.42;;;;;;;10.97;100.00;100695.88;6188168;23;20408;-75
2022/10/15 06:06:23;;;;;;;80.90;34.03;;;;;;;10.97;100.00;100682.56;6190944;23;20261;-75
2022/10/15 06:08:51;;;;;;;66.13;32.42;;;;;;;11.00;100.00;100689.69;6190153;23;20082;-75
2022/10/15 06:11:18;;;;;;;72.88;33.42;;;;;;;11.02;100.00;100691.91;6190209;23;20439;-75
2022/10/15 06:13:45;;;;;;;68.78;32.30;;;;;;;11.03;100.00;100693.38;6188857;23;20448;-75
2022/10/15 06:16:14;;;;;;;70.70;31.67;;;;;;;11.03;100.00;100685.38;6188177;23;20037;-76
2022/10/15 06:18:46;;;;;;;71.07;33.65;;;;;;;11.06;100.00;100687.16;6189845;23;20018;-76
2022/10/15 06:21:12;;;;;;;59.13;30.27;;;;;;;11.10;100.00;100687.03;6190321;23;20009;-76
2022/10/15 06:23:39;;;;;;;60.85;28.63;;;;;;;11.13;100.00;100688.81;6190748;23;20064;-76
2022/10/15 06:26:08;;;;;;;63.45;28.65;;;;;;;11.15;100.00;100681.09;6191248;23;20013;-77
2022/10/15 06:28:36;;;;;;;58.15;28.35;;;;;;;11.18;100.00;100685.53;6190768;23;20089;-76
2022/10/15 06:31:03;;;;;;;58.00;28.45;;;;;;;11.20;100.00;100685.81;6190538;23;20351;-76
2022/10/15 06:33:30;;;;;;;65.25;28.90;;;;;;;11.24;100.00;100687.16;6191014;23;20092;-76
2022/10/15 06:36:02;;;;;;;68.10;27.83;;;;;;;11.26;100.00;100690.13;6191178;23;20045;-81
2022/10/15 06:38:29;;;;;;;59.85;27.65;;;;;;;11.27;100.00;100696.19;6164398;23;20037;-78
2022/10/15 06:40:55;;;;;;;59.80;28.48;;;;;;;11.28;100.00;100697.66;6191001;23;20396;-79
2022/10/15 06:43:22;;;;;;;67.82;29.85;;;;;;;11.29;100.00;100696.47;6211016;23;20092;-76
2022/10/15 06:45:49;;;;;;;61.65;29.48;;;;;;;11.29;100.00;100691.16;6220770;23;20104;-75
2022/10/15 06:48:15;;;;;;;59.38;26.73;;;;;;;11.30;100.00;100687.31;6221207;23;20383;-78
2022/10/15 06:50:42;;;;;;;67.03;30.17;;;;;;;11.32;100.00;100691.00;6220914;23;20443;-76
2022/10/15 06:53:08;;;;;;;62.97;29.85;;;;;;;11.35;100.00;100689.38;6221019;23;20021;-77
2022/10/15 06:55:35;;;;;;;61.35;29.60;;;;;;;11.37;100.00;100687.00;6221100;23;20013;-77
2022/10/15 06:58:01;;;;;;;62.78;28.55;;;;;;;11.39;100.00;100686.56;6221467;23;20009;-79
2022/10/15 07:00:28;;;;;;;59.47;28.38;;;;;;;11.42;100.00;100691.75;6220655;23;20080;-77
2022/10/15 07:02:55;;;;;;;59.22;29.55;;;;;;;11.46;100.00;100694.25;6221016;23;20075;-77
2022/10/15 07:05:21;;;;;;;63.85;29.65;;;;;;;11.47;100.00;100685.81;6221000;23;20049;-77
2022/10/15 07:07:52;;;;;;;58.70;27.70;;;;;;;11.49;100.00;100682.72;6220920;23;20097;-77
2022/10/15 07:10:19;;;;;;;54.95;28.33;;;;;;;11.54;100.00;100684.78;6194546;23;20051;-78
2022/10/15 07:12:45;;;;;;;56.50;26.48;;;;;;;11.56;100.00;100685.81;6221065;23;20017;-77
2022/10/15 07:15:12;;;;;;;56.58;27.05;;;;;;;11.58;100.00;100688.78;6220475;23;20021;-77
2022/10/15 07:17:38;;;;;;;47.92;25.85;;;;;;;11.62;100.00;100700.00;6221103;23;20017;-77
2022/10/15 07:20:06;;;;;;;44.90;25.42;;;;;;;11.64;100.00;100700.28;6193906;23;20107;-76
2022/10/15 07:22:32;;;;;;;47.88;25.52;;;;;;;11.67;100.00;100696.00;6220784;23;20525;-78
2022/10/15 07:24:58;;;;;;;56.33;25.77;;;;;;;11.67;100.00;100704.72;6221165;23;20047;-76
2022/10/15 07:27:25;;;;;;;49.17;25.65;;;;;;;11.70;100.00;100698.50;6194291;23;20039;-77
2022/10/15 07:29:52;;;;;;;44.92;24.88;;;;;;;11.74;100.00;100702.94;6220477;23;20036;-76
2022/10/15 07:32:18;;;;;;;45.75;23.35;;;;;;;11.76;100.00;100703.97;6221220;23;20055;-76
2022/10/15 07:34:45;;;;;;;41.15;22.20;;;;;;;11.79;100.00;100702.38;6220863;23;20017;-76
2022/10/15 07:37:11;;;;;;;40.58;23.35;;;;;;;11.81;100.00;100697.34;6221162;23;20099;-75
2022/10/15 07:39:38;;;;;;;40.17;22.48;;;;;;;11.84;100.00;100701.78;6220813;23;20133;-75
2022/10/15 07:42:07;;;;;;;38.97;21.58;;;;;;;11.87;100.00;100698.22;6220362;23;20150;-75
2022/10/15 07:44:33;;;;;;;32.65;20.30;;;;;;;11.91;100.00;100694.19;6219016;23;20016;-75
2022/10/15 07:47:06;;;;;;;34.67;21.10;;;;;;;11.95;100.00;100691.38;6220899;23;20104;-75
2022/10/15 07:49:32;;;;;;;34.13;18.98;;;;;;;11.99;100.00;100691.97;6220620;23;20092;-75
2022/10/15 07:51:58;;;;;;;35.95;20.35;;;;;;;12.02;100.00;100691.78;6193597;23;20108;-75
2022/10/15 07:54:27;;;;;;;32.47;19.45;;;;;;;12.06;100.00;100686.28;6220662;23;20014;-76
2022/10/15 07:56:54;;;;;;;29.05;18.90;;;;;;;12.11;100.00;100690.28;6220754;23;20017;-76
2022/10/15 07:59:20;;;;;;;27.15;18.25;;;;;;;12.14;100.00;100689.38;6219661;23;20400;-76
2022/10/15 08:01:47;;;;;;;26.13;18.52;;;;;;;12.17;100.00;100681.22;6220905;23;20100;-75
2022/10/15 08:04:16;;;;;;;26.05;16.77;;;;;;;12.21;100.00;100681.78;6220570;23;20131;-77
2022/10/15 08:06:48;;;;;;;28.17;17.42;;;;;;;12.25;100.00;100682.38;6220946;23;20048;-73
2022/10/15 08:09:15;;;;;;;28.00;17.30;;;;;;;12.27;100.00;100679.97;6221074;23;20399;-74
2022/10/15 08:11:42;;;;;;;24.55;17.05;;;;;;;12.33;100.00;100677.44;6221393;23;20017;-78
2022/10/15 08:14:10;;;;;;;26.13;16.48;;;;;;;12.38;100.00;100668.06;6221984;23;20013;-75
2022/10/15 08:16:37;;;;;;;25.23;16.42;;;;;;;12.45;100.00;100660.44;6222115;23;20024;-75
2022/10/15 08:19:03;;;;;;;22.75;15.65;;;;;;;12.53;100.00;100660.84;6222088;23;20041;-75
2022/10/15 08:21:30;;;;;;;19.30;13.77;;;;;;;12.55;100.00;100656.53;6221730;23;20025;-75
2022/10/15 08:23:56;;;;;;;23.13;15.00;;;;;;;12.56;100.00;100651.94;6221606;23;20402;-75
2022/10/15 08:26:31;;;;;;;22.08;14.25;;;;;;;12.57;100.00;100648.06;6221223;23;20387;-75
2022/10/15 08:28:58;;;;;;;21.25;14.65;;;;;;;12.56;100.00;100647.34;6221704;23;20037;-75
2022/10/15 08:31:24;;;;;;;25.35;15.07;;;;;;;12.60;100.00;100649.84;6221885;23;20458;-76
2022/10/15 08:33:51;;;;;;;19.17;14.45;;;;;;;12.61;100.00;100644.03;6194942;23;20024;-75
2022/10/15 08:36:17;;;;;;;18.67;13.98;;;;;;;12.67;100.00;100644.16;6221776;23;20450;-76
2022/10/15 08:38:44;;;;;;;23.30;14.38;;;;;;;12.71;100.00;100654.66;6221867;23;20076;-76
2022/10/15 08:41:35;;;;;;;22.75;14.85;;;;;;;12.83;100.00;100646.41;6221010;23;20100;-75
2022/10/15 08:44:02;;;;;;;18.35;13.35;;;;;;;12.95;100.00;100652.69;6189615;23;20017;-75
2022/10/15 08:46:35;;;;;;;20.92;15.23;;;;;;;13.03;100.00;100651.16;6191628;23;20077;-75
2022/10/15 08:49:03;;;;;;;21.77;13.95;;;;;;;13.16;100.00;100642.91;6191608;23;20014;-75
2022/10/15 08:51:40;;;;;;;22.38;14.30;;;;;;;13.38;100.00;100648.66;6190123;23;20024;-76
2022/10/15 08:54:14;;;;;;;19.35;13.57;;;;;;;13.45;100.00;100647.53;6191675;23;20014;-75
2022/10/15 08:56:45;;;;;;;27.75;16.05;;;;;;;13.55;100.00;100635.56;6190954;23;20013;-75
2022/10/15 08:59:35;;;;;;;21.23;15.57;;;;;;;13.52;100.00;100636.47;6189440;23;20430;-76
2022/10/15 09:02:14;;;;;;;16.65;12.93;;;;;;;13.57;100.00;100630.50;6176336;23;20037;-76
2022/10/15 09:04:50;;;;;;;18.95;14.00;;;;;;;13.68;100.00;100626.03;6189916;23;20111;-76
2022/10/15 09:07:35;;;;;;;21.42;13.23;;;;;;;13.77;100.00;100627.88;6191634;23;20044;-76
2022/10/15 09:10:14;;;;;;;18.00;13.45;;;;;;;13.80;100.00;100636.91;6190846;23;20356;-76
2022/10/15 09:12:57;;;;;;;15.95;12.65;;;;;;;13.78;100.00;100636.63;6191131;23;20543;-81
2022/10/15 09:15:24;;;;;;;15.40;12.18;;;;;;;13.79;100.00;100638.84;6191597;23;20523;-77
2022/10/15 09:17:54;;;;;;;16.73;12.43;;;;;;;13.80;100.00;100623.53;6190767;23;20025;-78
2022/10/15 09:20:31;;;;;;;14.35;12.30;;;;;;;13.77;100.00;100616.44;6191089;23;20093;-77
2022/10/15 09:22:58;;;;;;;14.88;13.10;;;;;;;13.77;100.00;100632.50;6189571;23;20551;-77
2022/10/15 09:25:37;;;;;;;15.80;12.25;;;;;;;13.76;100.00;100623.72;6189227;23;20041;-77
2022/10/15 09:28:10;;;;;;;17.55;13.70;;;;;;;13.74;100.00;100609.34;6191418;23;20359;-76
2022/10/15 09:30:50;;;;;;;20.05;13.15;;;;;;;13.81;100.00;100599.00;6191331;23;20053;-77
2022/10/15 09:34:01;;;;;;;19.75;14.05;;;;;;;13.93;100.00;100600.63;6191262;23;20105;-77
2022/10/15 09:36:40;;;;;;;19.45;13.75;;;;;;;13.96;100.00;100602.38;6145606;23;20090;-78
2022/10/15 09:39:31;;;;;;;15.48;13.43;;;;;;;13.97;100.00;100606.53;6164320;23;20111;-77
2022/10/15 09:42:26;;;;;;;18.80;14.23;;;;;;;13.97;100.00;100595.09;6193352;23;20041;-77
2022/10/15 09:44:55;;;;;;;16.85;14.00;;;;;;;13.98;100.00;100605.34;6221420;23;20051;-77
2022/10/15 09:47:26;;;;;;;17.08;13.40;;;;;;;14.06;100.00;100602.97;6221447;23;20092;-77
2022/10/15 09:49:58;;;;;;;15.00;12.10;;;;;;;14.13;100.00;100599.19;6221335;23;20024;-77
2022/10/15 09:52:59;;;;;;;17.95;14.27;;;;;;;14.21;100.00;100603.69;6221221;23;20076;-77
2022/10/15 09:55:41;;;;;;;15.07;12.45;;;;;;;14.23;100.00;100606.63;6220679;23;20096;-77
2022/10/15 09:58:40;;;;;;;15.90;13.18;;;;;;;14.22;100.00;100610.50;6221306;23;20093;-78
2022/10/15 10:01:16;;;;;;;16.05;13.18;;;;;;;14.20;100.00;100618.28;6221460;23;20037;-77
2022/10/15 10:03:43;;;;;;;17.27;13.40;;;;;;;14.14;100.00;100597.97;6221340;23;20045;-77
2022/10/15 10:06:12;;;;;;;20.23;13.43;;;;;;;14.07;100.00;100591.06;6221206;23;20358;-81
2022/10/15 10:08:58;;;;;;;18.50;13.27;;;;;;;14.10;100.00;100568.72;6195325;23;20017;-80
2022/10/15 10:11:26;;;;;;;18.13;12.13;;;;;;;14.13;100.00;100570.47;6222966;23;20052;-80
2022/10/15 10:13:55;;;;;;;15.77;13.05;;;;;;;14.17;100.00;100575.63;6222203;23;20009;-78
2022/10/15 10:16:22;;;;;;;16.83;12.20;;;;;;;14.24;100.00;100567.22;6221389;23;20084;-76
2022/10/15 10:19:12;;;;;;;15.30;11.45;;;;;;;14.28;100.00;100565.06;6194070;23;20097;-76
2022/10/15 10:21:41;;;;;;;14.73;11.05;;;;;;;14.37;100.00;100566.88;6194738;23;20041;-76
2022/10/15 10:24:27;;;;;;;11.73;10.02;;;;;;;14.40;100.00;100569.31;6194007;23;20048;-76
2022/10/15 10:26:53;;;;;;;12.02;10.02;;;;;;;14.40;100.00;100576.63;6194525;23;20017;-77
2022/10/15 10:29:22;;;;;;;13.68;10.63;;;;;;;14.38;100.00;100568.34;6221385;23;20039;-76
2022/10/15 10:32:09;;;;;;;11.35;10.15;;;;;;;14.31;100.00;100570.22;6221077;23;20017;-77
2022/10/15 10:34:36;;;;;;;12.38;10.13;;;;;;;14.32;100.00;100570.97;6221112;23;20145;-78
2022/10/15 10:37:05;;;;;;;13.93;11.07;;;;;;;14.34;100.00;100561.25;6220602;23;20473;-77
2022/10/15 10:39:35;;;;;;;15.98;10.27;;;;;;;14.35;100.00;100568.09;6221224;23;20018;-80
2022/10/15 10:42:06;;;;;;;10.13;9.05;;;;;;;14.34;100.00;100563.94;6220741;23;20047;-77
2022/10/15 10:44:45;;;;;;;10.35;8.88;;;;;;;14.29;100.00;100553.88;6220941;23;20519;-75
2022/10/15 10:47:23;;;;;;;10.43;8.25;;;;;;;14.29;100.00;100566.53;6221265;23;20021;-75
2022/10/15 10:49:55;;;;;;;;;;;;;;;14.30;100.00;100555.34;6221036;23;20013;-75
2022/10/15 10:52:26;;;;;;;10.02;7.72;;;;;;;14.29;100.00;100556.56;6221062;23;19944;-76
2022/10/15 10:55:16;;;;;;;8.57;7.32;;;;;;;14.24;100.00;100559.91;6221048;23;20059;-75
2022/10/15 10:57:45;;;;;;;13.23;6.60;;;;;;;14.22;100.00;100559.63;6221174;23;20100;-76
2022/10/15 11:00:44;;;;;;;6.95;6.30;;;;;;;14.18;100.00;100561.03;6169443;23;20507;-76
2022/10/15 11:03:22;;;;;;;7.65;6.88;;;;;;;14.17;100.00;100557.63;6221074;23;20009;-75
2022/10/15 11:06:28;;;;;;;8.15;6.60;;;;;;;14.18;100.00;100555.69;6220331;23;20021;-76
2022/10/15 11:09:09;;;;;;;7.22;6.63;;;;;;;14.18;100.00;100558.38;6186306;23;20028;-75
2022/10/15 11:11:51;;;;;;;7.55;6.70;;;;;;;14.21;100.00;100557.44;6221082;23;20402;-75
2022/10/15 11:14:31;;;;;;;8.23;6.85;;;;;;;14.22;100.00;100546.25;6221022;23;20021;-76
2022/10/15 11:17:26;;;;;;;6.90;6.00;;;;;;;14.26;100.00;100549.47;6194352;23;20463;-75
2022/10/15 11:20:03;;;;;;;6.93;6.32;;;;;;;14.25;100.00;100545.31;6194364;23;20111;-75
2022/10/15 11:23:16;;;;;;;8.60;6.28;;;;;;;14.30;100.00;100533.19;6221305;23;20013;-75
2022/10/15 11:26:01;;;;;;;7.60;6.18;;;;;;;14.37;100.00;100532.06;6221132;23;20521;-75